createdAt,value
2022-09-04T00:01:54.371Z,12.07
2022-09-04T00:04:29.241Z,14.80
2022-09-04T00:07:28.508Z,9.32
2022-09-04T00:11:00.737Z,6.57
2022-09-04T00:13:51.955Z,7.38
2022-09-04T00:16:26.767Z,6.03
2022-09-04T00:19:04.278Z,5.28
2022-09-04T00:21:34.444Z,5.70
2022-09-04T00:24:17.833Z,4.85
2022-09-04T00:27:06.675Z,3.80
2022-09-04T00:30:07.544Z,4.68
2022-09-04T00:32:45.820Z,3.75
2022-09-04T00:35:31.642Z,4.05
2022-09-04T00:38:04.018Z,3.22
2022-09-04T00:40:43.525Z,2.85
2022-09-04T00:43:31.152Z,4.85
2022-09-04T00:46:06.503Z,4.22
2022-09-04T00:48:45.463Z,2.60
2022-09-04T00:51:25.903Z,3.10
2022-09-04T00:54:22.312Z,4.85
2022-09-04T00:56:55.515Z,3.45
2022-09-04T00:59:45.960Z,4.50
2022-09-04T01:02:35.071Z,3.78
2022-09-04T01:05:36.430Z,4.72
2022-09-04T01:08:08.031Z,3.10
2022-09-04T01:10:43.566Z,3.90
2022-09-04T01:13:42.294Z,3.42
2022-09-04T01:16:30.558Z,5.90
2022-09-04T01:19:29.574Z,3.45
2022-09-04T01:22:47.681Z,3.90
2022-09-04T01:25:30.881Z,5.00
2022-09-04T01:28:18.671Z,4.28
2022-09-04T01:30:51.260Z,6.25
2022-09-04T01:33:21.336Z,3.03
2022-09-04T01:36:03.498Z,7.10
2022-09-04T01:38:45.602Z,6.80
2022-09-04T01:41:34.007Z,4.22
2022-09-04T01:44:07.642Z,6.55
2022-09-04T01:47:02.114Z,5.97
2022-09-04T01:49:50.875Z,9.73
2022-09-04T01:52:39.790Z,8.75
2022-09-04T01:55:24.351Z,17.70
2022-09-04T01:58:10.987Z,27.02
2022-09-04T02:01:11.156Z,30.88
2022-09-04T02:03:39.496Z,29.05
2022-09-04T02:06:22.243Z,31.08
2022-09-04T02:09:15.948Z,32.08
2022-09-04T02:11:51.412Z,30.88
2022-09-04T02:14:32.569Z,40.58
2022-09-04T02:17:10.264Z,36.25
2022-09-04T02:19:59.643Z,36.38
2022-09-04T02:22:36.479Z,39.95
2022-09-04T02:25:14.729Z,44.30
2022-09-04T02:27:51.487Z,31.60
2022-09-04T02:30:20.168Z,31.95
2022-09-04T02:32:59.056Z,34.42
2022-09-04T02:35:56.561Z,37.90
2022-09-04T02:38:38.968Z,25.08
2022-09-04T02:41:20.856Z,19.63
2022-09-04T02:44:20.929Z,15.30
2022-09-04T02:47:05.388Z,16.98
2022-09-04T02:49:51.973Z,9.55
2022-09-04T02:52:33.606Z,10.45
2022-09-04T02:55:37.794Z,9.80
2022-09-04T02:58:11.579Z,4.88
2022-09-04T03:00:54.491Z,6.93
2022-09-04T03:03:29.434Z,8.20
2022-09-04T03:06:04.036Z,6.57
2022-09-04T03:08:37.747Z,4.40
2022-09-04T03:11:17.583Z,6.18
2022-09-04T03:14:14.397Z,8.20
2022-09-04T03:16:56.742Z,4.28
2022-09-04T03:19:29.886Z,7.57
2022-09-04T03:22:05.159Z,5.90
2022-09-04T03:24:56.713Z,5.90
2022-09-04T03:27:24.335Z,6.15
2022-09-04T03:30:08.353Z,6.07
2022-09-04T03:33:09.749Z,5.53
2022-09-04T03:35:42.812Z,5.85
2022-09-04T03:38:28.900Z,7.70
2022-09-04T03:41:11.282Z,5.82
2022-09-04T03:44:00.762Z,5.30
2022-09-04T03:46:55.593Z,5.35
2022-09-04T03:49:47.675Z,5.90
2022-09-04T03:52:46.204Z,4.68
2022-09-04T03:55:45.559Z,7.38
2022-09-04T03:58:28.007Z,7.78
2022-09-04T04:01:14.935Z,6.38
2022-09-04T04:03:54.752Z,5.10
2022-09-04T04:06:30.891Z,6.32
2022-09-04T04:09:11.999Z,4.25
2022-09-04T04:12:02.654Z,4.78
2022-09-04T04:14:52.399Z,4.80
2022-09-04T04:17:41.502Z,5.30
2022-09-04T04:20:18.023Z,6.78
2022-09-04T04:22:45.475Z,4.05
2022-09-04T04:25:25.250Z,3.95
2022-09-04T04:28:07.638Z,4.47
2022-09-04T04:30:54.865Z,4.28
2022-09-04T04:33:38.914Z,5.18
2022-09-04T04:36:45.681Z,3.35
2022-09-04T04:39:23.361Z,5.03
2022-09-04T04:42:05.713Z,4.22
2022-09-04T04:45:25.966Z,3.55
2022-09-04T04:48:08.140Z,5.10
2022-09-04T04:51:03.927Z,5.28
2022-09-04T04:54:26.072Z,4.07
2022-09-04T04:57:03.903Z,3.45
2022-09-04T04:59:48.026Z,4.32
2022-09-04T05:02:27.687Z,3.47
2022-09-04T05:05:03.025Z,3.50
2022-09-04T05:07:34.736Z,3.50
2022-09-04T05:10:31.112Z,3.10
2022-09-04T05:13:01.418Z,2.60
2022-09-04T05:16:05.093Z,2.78
2022-09-04T05:18:35.599Z,4.40
2022-09-04T05:21:29.973Z,4.30
2022-09-04T05:24:10.753Z,4.60
2022-09-04T05:27:01.154Z,3.63
2022-09-04T05:30:00.285Z,2.95
2022-09-04T05:32:30.786Z,3.78
2022-09-04T05:35:11.655Z,5.45
2022-09-04T07:24:42.495Z,2.00
2022-09-04T07:27:18.904Z,2.53
2022-09-04T07:29:55.602Z,3.15
2022-09-04T07:32:52.054Z,4.25
2022-09-04T07:36:10.773Z,2.03
2022-09-04T07:38:57.965Z,2.45
2022-09-04T07:41:53.543Z,2.28
2022-09-04T07:44:34.096Z,2.92
2022-09-04T07:47:26.920Z,1.50
2022-09-04T07:50:09.901Z,2.58
2022-09-04T07:52:50.533Z,3.20
2022-09-04T07:55:46.960Z,2.90
2022-09-04T07:58:47.772Z,4.95
2022-09-04T08:01:18.058Z,2.03
2022-09-04T08:04:06.237Z,1.50
2022-09-04T08:06:47.796Z,2.00
2022-09-04T08:12:48.078Z,1.60
2022-09-04T08:15:23.085Z,3.50
2022-09-04T08:18:17.554Z,1.67
2022-09-04T08:21:02.018Z,2.03
2022-09-04T08:24:21.693Z,2.10
2022-09-04T08:58:09.795Z,1.85
2022-09-04T09:01:13.226Z,3.83
2022-09-04T09:03:51.501Z,1.60
2022-09-04T09:07:04.800Z,1.80
2022-09-04T09:09:42.659Z,2.13
2022-09-04T09:12:48.537Z,1.48
2022-09-04T09:15:25.104Z,3.47
2022-09-04T09:18:26.272Z,1.65
2022-09-04T09:21:05.626Z,2.78
2022-09-04T09:23:54.755Z,2.03
2022-09-04T09:26:22.333Z,1.65
2022-09-04T09:29:20.606Z,2.90
2022-09-04T09:31:51.116Z,2.17
2022-09-04T09:34:30.547Z,2.25
2022-09-04T09:37:28.317Z,1.63
2022-09-04T09:40:01.998Z,2.50
2022-09-04T09:42:51.645Z,1.67
2022-09-04T09:45:52.852Z,2.45
2022-09-04T09:48:38.868Z,1.70
2022-09-04T09:51:41.441Z,2.72
2022-09-04T09:54:42.210Z,3.20
2022-09-04T09:57:12.709Z,1.38
2022-09-04T10:00:19.909Z,3.67
2022-09-04T10:03:24.649Z,2.10
2022-09-04T10:06:11.719Z,2.85
2022-09-04T10:09:09.930Z,1.83
2022-09-04T10:11:40.858Z,2.28
2022-09-04T10:14:14.272Z,2.75
2022-09-04T10:17:09.924Z,4.57
2022-09-04T10:19:55.050Z,2.00
2022-09-04T10:22:38.811Z,2.28
2022-09-04T10:25:35.326Z,4.10
2022-09-04T10:28:33.232Z,1.85
2022-09-04T10:31:28.074Z,1.92
2022-09-04T10:34:24.260Z,1.92
2022-09-04T10:37:42.366Z,1.60
2022-09-04T14:07:10.428Z,3.15
2022-09-04T14:09:44.773Z,2.75
2022-09-04T21:03:05.809Z,21.00
